Time;durP1;ratioP1;P1;durP2;ratioP2;P2;SDS_P1;SDS_P2;PMS_P1;PMS_P2;Temp;Humidity;BMP_temperature;BMP_pressure;BME280_temperature;BME280_humidity;BME280_pressure;Samples;Min_cycle;Max_cycle;Signal;HPM_P1;HPM_P2
2021/12/27 00:01:44;;;;;;;22.02;12.43;;;-0.80;99.90;;;;;;5036747;28;20187;-74
2021/12/27 00:04:10;;;;;;;23.33;12.73;;;-0.80;99.90;;;;;;5062353;28;20054;-73
2021/12/27 00:06:36;;;;;;;23.10;13.60;;;-0.80;99.90;;;;;;5064826;28;20072;-74
2021/12/27 00:09:02;;;;;;;28.98;12.70;;;-0.80;99.90;;;;;;5024209;28;20049;-75
2021/12/27 00:11:27;;;;;;;23.05;12.48;;;-0.90;99.90;;;;;;5018284;28;20153;-74
2021/12/27 00:13:53;;;;;;;19.90;11.70;;;-0.90;99.90;;;;;;5041600;28;20442;-74
2021/12/27 00:16:19;;;;;;;25.13;12.80;;;-0.80;99.90;;;;;;5032040;28;20492;-75
2021/12/27 00:18:45;;;;;;;24.10;13.57;;;-0.80;99.90;;;;;;5040752;28;20125;-74
2021/12/27 00:21:10;;;;;;;27.63;14.18;;;-0.90;99.90;;;;;;5040283;28;20068;-75
2021/12/27 00:23:36;;;;;;;26.02;13.32;;;-0.80;99.90;;;;;;5077894;28;20538;-74
2021/12/27 00:26:02;;;;;;;23.08;12.43;;;-0.90;99.90;;;;;;5061385;28;20103;-75
2021/12/27 00:28:30;;;;;;;23.38;12.25;;;-0.90;99.90;;;;;;5025144;28;20463;-73
2021/12/27 00:30:55;;;;;;;23.23;12.82;;;-0.80;99.90;;;;;;5028180;28;20053;-74
2021/12/27 00:33:21;;;;;;;21.77;12.32;;;-0.80;99.90;;;;;;5021975;28;20037;-75
2021/12/27 00:35:48;;;;;;;24.25;13.38;;;-0.90;99.90;;;;;;5063948;28;20037;-73
2021/12/27 00:38:14;;;;;;;25.33;13.45;;;-0.80;99.90;;;;;;5067002;28;20030;-74
2021/12/27 00:40:40;;;;;;;26.20;12.88;;;-0.80;99.90;;;;;;5006836;28;20373;-74
2021/12/27 00:43:05;;;;;;;22.30;12.10;;;-0.90;99.90;;;;;;5036825;28;20061;-74
2021/12/27 00:45:31;;;;;;;24.20;13.27;;;-0.90;99.90;;;;;;5053423;28;20147;-75
2021/12/27 00:47:57;;;;;;;22.38;12.60;;;-0.90;99.90;;;;;;5064657;28;20098;-74
2021/12/27 00:50:22;;;;;;;25.38;13.57;;;-0.90;99.90;;;;;;5066660;28;20037;-74
2021/12/27 00:52:50;;;;;;;23.17;12.95;;;-0.90;99.90;;;;;;5020481;28;20128;-74
2021/12/27 00:55:16;;;;;;;21.67;12.93;;;-0.90;99.90;;;;;;5048171;28;20045;-74
2021/12/27 00:57:42;;;;;;;22.38;12.13;;;-0.90;99.90;;;;;;5037612;28;20116;-74
2021/12/27 01:00:11;;;;;;;24.83;12.65;;;-0.90;99.90;;;;;;5038358;28;20123;-74
2021/12/27 01:02:38;;;;;;;22.35;12.00;;;-0.90;99.90;;;;;;5035326;28;20041;-74
2021/12/27 01:05:04;;;;;;;18.60;10.32;;;-1.00;99.90;;;;;;5036359;28;20754;-74
2021/12/27 01:07:30;;;;;;;22.83;13.07;;;-0.90;99.90;;;;;;5053323;28;20042;-74
2021/12/27 01:12:46;;;;;;;22.08;12.52;;;-1.00;99.90;;;;;;5065852;28;20045;-74
2021/12/27 01:17:42;;;;;;;23.20;12.10;;;-1.10;99.90;;;;;;5035816;28;20514;-74
2021/12/27 01:20:11;;;;;;;19.40;10.38;;;-1.10;99.90;;;;;;5052970;28;20516;-72
2021/12/27 01:22:37;;;;;;;23.85;12.57;;;-1.10;99.90;;;;;;5026294;28;20040;-74
2021/12/27 01:25:06;;;;;;;22.30;12.13;;;-1.10;99.90;;;;;;5029846;28;20042;-73
2021/12/27 01:27:32;;;;;;;17.23;10.40;;;-1.10;99.90;;;;;;5055493;28;20045;-74
2021/12/27 01:29:58;;;;;;;16.25;8.75;;;-1.10;99.90;;;;;;5021179;28;20393;-74
2021/12/27 01:32:27;;;;;;;21.38;12.70;;;-1.10;99.90;;;;;;5054716;28;20034;-74
2021/12/27 01:34:52;;;;;;;22.05;11.93;;;-1.10;99.90;;;;;;5046332;28;20071;-73
2021/12/27 01:37:18;;;;;;;22.85;13.57;;;-1.20;99.90;;;;;;5028855;28;20084;-74
2021/12/27 01:39:45;;;;;;;23.83;12.52;;;-1.20;99.90;;;;;;5034792;28;20064;-73
2021/12/27 01:42:11;;;;;;;22.45;12.00;;;-1.20;99.90;;;;;;5035608;28;20033;-73
2021/12/27 01:44:39;;;;;;;21.58;12.18;;;-1.20;99.90;;;;;;5078387;28;20052;-75
2021/12/27 01:47:06;;;;;;;25.20;13.23;;;-1.20;99.90;;;;;;5079602;28;20040;-73
2021/12/27 01:49:32;;;;;;;23.38;13.50;;;-1.20;99.90;;;;;;5086796;28;20041;-73
2021/12/27 01:51:58;;;;;;;23.00;12.70;;;-1.20;99.90;;;;;;5059598;28;20203;-73
2021/12/27 01:54:23;;;;;;;21.92;13.55;;;-1.20;99.90;;;;;;5033625;28;20072;-73
2021/12/27 01:56:52;;;;;;;23.55;13.52;;;-1.20;99.90;;;;;;5034493;28;21307;-73
2021/12/27 01:59:18;;;;;;;22.08;13.30;;;-1.20;99.90;;;;;;5050587;28;20219;-73
2021/12/27 02:01:44;;;;;;;21.55;12.98;;;-1.00;99.90;;;;;;5022786;28;20052;-74
2021/12/27 02:04:10;;;;;;;21.15;12.20;;;-1.20;99.90;;;;;;5036392;28;20037;-73
2021/12/27 02:06:36;;;;;;;22.88;13.15;;;-1.20;99.90;;;;;;5048278;28;20049;-74
2021/12/27 02:09:04;;;;;;;23.20;13.27;;;-1.20;99.90;;;;;;5068631;28;20341;-73
2021/12/27 02:11:34;;;;;;;22.58;12.35;;;-1.20;99.90;;;;;;5065354;28;20044;-74
2021/12/27 02:14:04;;;;;;;22.67;13.10;;;-1.20;99.90;;;;;;5057526;28;20040;-74
2021/12/27 02:16:31;;;;;;;22.33;13.52;;;-1.20;99.90;;;;;;5054646;28;20045;-74
2021/12/27 02:18:56;;;;;;;26.17;13.57;;;-1.20;99.90;;;;;;5047154;28;20450;-73
2021/12/27 02:21:23;;;;;;;23.92;14.20;;;-1.20;99.90;;;;;;5076833;28;20147;-74
2021/12/27 02:23:52;;;;;;;26.20;14.07;;;-1.20;99.90;;;;;;5050438;28;20194;-73
2021/12/27 02:26:18;;;;;;;22.85;14.00;;;-1.20;99.90;;;;;;5046908;28;20629;-74
2021/12/27 02:28:45;;;;;;;24.55;14.10;;;-1.20;99.90;;;;;;5040175;28;20040;-74
2021/12/27 02:31:11;;;;;;;22.83;13.77;;;-1.20;99.90;;;;;;5050155;28;20037;-74
2021/12/27 02:33:41;;;;;;;26.42;14.52;;;-1.20;99.90;;;;;;5071095;28;20052;-73
2021/12/27 02:36:09;;;;;;;24.00;13.57;;;-1.10;99.90;;;;;;5045765;28;20111;-74
2021/12/27 02:38:39;;;;;;;25.30;14.55;;;-1.10;99.90;;;;;;5062072;28;20127;-73
2021/12/27 02:41:05;;;;;;;23.98;14.07;;;-1.10;99.90;;;;;;5069549;28;20076;-75
2021/12/27 02:43:32;;;;;;;24.33;12.95;;;-1.10;99.90;;;;;;5059124;28;20519;-74
2021/12/27 02:46:04;;;;;;;23.30;14.00;;;-1.10;99.90;;;;;;5012524;28;20049;-73
2021/12/27 02:48:37;;;;;;;24.92;14.88;;;-1.10;99.90;;;;;;5052692;28;20558;-74
2021/12/27 02:51:04;;;;;;;22.75;14.27;;;-1.10;99.90;;;;;;5015193;28;20064;-74
2021/12/27 02:53:29;;;;;;;25.27;15.32;;;-1.10;99.90;;;;;;5018120;28;20124;-74
2021/12/27 02:55:57;;;;;;;24.10;14.25;;;-1.10;99.90;;;;;;5014810;28;20167;-74
2021/12/27 02:58:23;;;;;;;26.05;15.38;;;-1.00;99.90;;;;;;5045647;28;20033;-73
2021/12/27 03:01:02;;;;;;;26.52;15.13;;;-0.90;99.90;;;;;;5029931;28;20126;-74
2021/12/27 03:03:28;;;;;;;23.67;14.57;;;-0.90;99.90;;;;;;5047981;28;20120;-74
2021/12/27 03:05:54;;;;;;;27.20;16.15;;;-1.00;99.90;;;;;;5033444;28;20176;-74
2021/12/27 03:08:21;;;;;;;27.60;15.75;;;-1.00;99.90;;;;;;5040971;28;20061;-73
2021/12/27 03:10:51;;;;;;;25.95;15.82;;;-1.00;99.90;;;;;;5054376;28;20064;-73
2021/12/27 03:13:20;;;;;;;23.80;15.20;;;-0.90;99.90;;;;;;5057641;28;20040;-73
2021/12/27 03:15:53;;;;;;;26.30;15.30;;;-0.90;99.90;;;;;;5030719;28;20373;-73
2021/12/27 03:18:19;;;;;;;26.92;15.02;;;-0.90;99.90;;;;;;5038056;28;20461;-74
2021/12/27 03:20:45;;;;;;;29.70;15.65;;;-0.90;99.90;;;;;;5027967;28;20125;-74
2021/12/27 03:23:11;;;;;;;25.90;15.93;;;-0.90;99.90;;;;;;5055744;28;20435;-74
2021/12/27 03:25:36;;;;;;;26.65;15.52;;;-0.90;99.90;;;;;;5065244;28;20041;-74
2021/12/27 03:28:03;;;;;;;28.25;16.40;;;-0.90;99.90;;;;;;5066476;28;20041;-74
2021/12/27 03:30:29;;;;;;;32.10;16.35;;;-0.80;99.90;;;;;;5033522;28;20092;-74
2021/12/27 03:32:55;;;;;;;27.48;15.75;;;-0.80;99.90;;;;;;5064309;28;20057;-74
2021/12/27 03:35:34;;;;;;;28.92;15.43;;;0.10;99.90;;;;;;5035860;28;20056;-74
2021/12/27 03:38:00;;;;;;;26.75;15.00;;;-0.80;99.90;;;;;;5022399;28;20120;-74
2021/12/27 03:40:27;;;;;;;27.50;14.70;;;-0.80;99.90;;;;;;5078856;28;20125;-73
2021/12/27 03:42:54;;;;;;;24.60;12.85;;;-0.80;99.90;;;;;;5031995;28;20045;-73
2021/12/27 03:45:24;;;;;;;24.55;13.63;;;-0.80;99.90;;;;;;5056252;28;20345;-73
2021/12/27 03:47:51;;;;;;;32.13;16.17;;;-0.80;99.90;;;;;;5028688;28;20400;-74
2021/12/27 03:50:17;;;;;;;29.58;16.48;;;-0.70;99.90;;;;;;5052105;28;20077;-74
2021/12/27 03:52:43;;;;;;;29.60;16.33;;;-0.70;99.90;;;;;;5028234;28;20060;-73
2021/12/27 03:55:10;;;;;;;26.77;16.08;;;-0.70;99.90;;;;;;5041650;28;20087;-74
2021/12/27 03:57:38;;;;;;;24.45;15.27;;;-0.70;99.90;;;;;;5057435;28;20068;-73
2021/12/27 04:02:54;;;;;;;26.30;15.52;;;-0.70;99.90;;;;;;5041144;28;20083;-74
2021/12/27 04:05:21;;;;;;;26.55;16.25;;;-0.70;99.90;;;;;;5057610;28;20047;-74
2021/12/27 04:07:56;;;;;;;24.83;15.57;;;-0.70;99.90;;;;;;5045615;28;20412;-74
2021/12/27 04:10:22;;;;;;;25.92;15.48;;;-0.70;99.90;;;;;;5023484;28;20053;-74
2021/12/27 04:12:48;;;;;;;31.13;16.90;;;-0.70;99.90;;;;;;5068887;28;20038;-73
2021/12/27 04:15:14;;;;;;;28.67;14.93;;;-0.70;99.90;;;;;;5073594;28;20530;-73
2021/12/27 04:17:40;;;;;;;28.05;15.52;;;-0.70;99.90;;;;;;5023837;28;20061;-74
2021/12/27 04:20:06;;;;;;;28.23;16.00;;;-0.60;99.90;;;;;;5057170;28;20041;-74
2021/12/27 04:22:33;;;;;;;25.52;15.23;;;-0.60;99.90;;;;;;5052880;28;20044;-73
2021/12/27 04:25:03;;;;;;;27.55;16.55;;;-0.60;99.90;;;;;;5030154;28;20088;-74
2021/12/27 04:27:29;;;;;;;30.02;16.90;;;-0.60;99.90;;;;;;5057325;28;20125;-74
2021/12/27 04:29:54;;;;;;;28.85;16.40;;;-0.60;99.90;;;;;;5023718;28;20143;-73
2021/12/27 04:32:20;;;;;;;26.27;15.25;;;-0.60;99.90;;;;;;5046873;28;20048;-74
2021/12/27 04:34:46;;;;;;;30.65;17.08;;;-0.50;99.90;;;;;;5040168;28;20464;-73
2021/12/27 04:37:12;;;;;;;29.95;17.20;;;-0.60;99.90;;;;;;5036652;28;20096;-73
2021/12/27 04:39:37;;;;;;;29.27;16.77;;;-0.50;99.90;;;;;;5045805;28;20037;-74
2021/12/27 04:42:05;;;;;;;30.13;17.25;;;-0.50;99.90;;;;;;5042887;28;20064;-74
2021/12/27 04:44:31;;;;;;;29.10;17.48;;;-0.50;99.90;;;;;;5042674;28;20050;-74
2021/12/27 04:46:56;;;;;;;29.48;16.50;;;-0.50;99.90;;;;;;5030299;28;20095;-74
2021/12/27 04:49:22;;;;;;;29.13;16.33;;;-0.50;99.90;;;;;;5063461;28;20045;-74
2021/12/27 04:51:48;;;;;;;28.63;17.20;;;-0.50;99.90;;;;;;5013817;28;20128;-74
2021/12/27 04:54:14;;;;;;;29.05;16.73;;;-0.50;99.90;;;;;;5070821;28;20052;-74
2021/12/27 04:56:40;;;;;;;30.92;18.30;;;-0.50;99.90;;;;;;5059800;28;20504;-74
2021/12/27 04:59:05;;;;;;;30.40;18.17;;;-0.40;99.90;;;;;;5020274;28;20037;-73
2021/12/27 05:01:31;;;;;;;32.42;17.85;;;-0.50;99.90;;;;;;5009776;28;20425;-74
2021/12/27 05:03:57;;;;;;;26.92;17.30;;;-0.50;99.90;;;;;;5057596;28;20120;-74
2021/12/27 05:06:23;;;;;;;29.83;15.45;;;-0.40;99.90;;;;;;5023735;28;20048;-73
2021/12/27 05:08:49;;;;;;;30.13;16.10;;;-0.40;99.90;;;;;;5032669;28;20064;-74
2021/12/27 05:11:16;;;;;;;32.25;17.63;;;-0.40;99.90;;;;;;5037885;28;20056;-73
2021/12/27 05:13:42;;;;;;;27.52;16.77;;;-0.40;99.90;;;;;;5074167;28;20037;-74
2021/12/27 05:16:08;;;;;;;28.75;17.05;;;-0.40;99.90;;;;;;5072192;28;20039;-74
2021/12/27 05:18:33;;;;;;;30.05;18.63;;;-0.40;99.90;;;;;;5008482;28;20053;-74
2021/12/27 05:20:59;;;;;;;29.25;17.13;;;-0.30;99.90;;;;;;5025291;28;20040;-74
2021/12/27 05:23:25;;;;;;;31.77;17.30;;;-0.30;99.90;;;;;;5032843;28;20049;-74
2021/12/27 05:25:51;;;;;;;32.67;17.45;;;-0.30;99.90;;;;;;5032532;28;20666;-74
2021/12/27 05:28:17;;;;;;;35.00;18.48;;;-0.30;99.90;;;;;;5033282;28;20141;-74
2021/12/27 05:30:47;;;;;;;30.67;15.93;;;-0.30;99.90;;;;;;5060752;28;20064;-74
2021/12/27 05:33:14;;;;;;;29.80;17.63;;;-0.30;99.90;;;;;;5017046;28;20470;-74
2021/12/27 05:35:40;;;;;;;29.63;17.98;;;-0.30;99.90;;;;;;5035551;28;20064;-73
2021/12/27 05:38:05;;;;;;;28.52;17.25;;;-0.20;99.90;;;;;;5042151;28;20064;-74
2021/12/27 05:40:31;;;;;;;30.92;18.52;;;-0.30;99.90;;;;;;5035244;28;20665;-73
2021/12/27 05:42:57;;;;;;;34.13;19.77;;;-0.20;99.90;;;;;;5043519;28;20060;-73
2021/12/27 05:45:23;;;;;;;34.60;19.80;;;-0.20;99.90;;;;;;5071237;28;20041;-73
2021/12/27 05:47:48;;;;;;;30.10;18.98;;;-0.30;99.90;;;;;;5051772;28;20044;-74
2021/12/27 05:50:16;;;;;;;36.85;20.17;;;-0.30;99.90;;;;;;5064143;28;20457;-74
2021/12/27 05:52:42;;;;;;;33.55;19.25;;;-0.30;99.90;;;;;;5039900;28;20060;-74
2021/12/27 05:55:09;;;;;;;34.90;20.20;;;-0.30;99.90;;;;;;5030176;28;20492;-73
2021/12/27 05:57:35;;;;;;;35.33;20.58;;;-0.30;99.90;;;;;;5028635;28;20029;-73
2021/12/27 06:00:04;;;;;;;37.42;21.83;;;-0.30;99.90;;;;;;5034781;28;20104;-74
2021/12/27 06:02:30;;;;;;;36.90;20.60;;;0.40;99.90;;;;;;5019412;28;20501;-74
2021/12/27 06:04:56;;;;;;;26.48;14.45;;;-0.40;99.90;;;;;;5035790;28;20033;-73
2021/12/27 06:07:22;;;;;;;38.85;22.13;;;-0.40;99.90;;;;;;5059653;28;20042;-74
2021/12/27 06:09:48;;;;;;;37.10;19.25;;;-0.40;99.90;;;;;;5041685;28;20102;-74
2021/12/27 06:12:13;;;;;;;38.63;21.73;;;-0.30;99.90;;;;;;5035315;28;20087;-73
2021/12/27 06:14:39;;;;;;;40.58;21.63;;;-0.30;99.90;;;;;;5038748;28;20051;-74
2021/12/27 06:17:05;;;;;;;46.67;23.23;;;-0.30;99.90;;;;;;5066774;28;20033;-74
2021/12/27 06:19:31;;;;;;;46.63;21.88;;;-0.30;99.90;;;;;;5066151;28;20039;-74
2021/12/27 06:21:57;;;;;;;44.45;22.77;;;-0.30;99.90;;;;;;5058458;28;20152;-74
2021/12/27 06:24:22;;;;;;;44.53;22.60;;;-0.30;99.90;;;;;;5066011;28;20080;-74
2021/12/27 06:26:48;;;;;;;43.83;21.13;;;-0.30;99.90;;;;;;5032130;28;20132;-74
2021/12/27 06:29:14;;;;;;;42.15;21.10;;;-0.30;99.90;;;;;;5006788;28;20124;-74
2021/12/27 06:31:40;;;;;;;41.08;22.80;;;-0.30;99.90;;;;;;4997117;28;20045;-74
2021/12/27 06:34:05;;;;;;;44.70;23.55;;;-0.30;99.90;;;;;;5004984;28;20069;-75
2021/12/27 06:36:32;;;;;;;41.08;22.38;;;-0.30;99.90;;;;;;5014065;28;20044;-73
2021/12/27 06:38:59;;;;;;;38.47;21.52;;;-0.30;99.90;;;;;;5028124;28;20083;-74
2021/12/27 06:41:25;;;;;;;40.97;21.58;;;-0.30;99.90;;;;;;5041777;28;20037;-73
2021/12/27 06:43:52;;;;;;;39.33;20.10;;;-0.30;99.90;;;;;;5019507;28;20093;-75
2021/12/27 06:46:18;;;;;;;41.53;22.70;;;-0.30;99.90;;;;;;5024741;28;20045;-75
2021/12/27 06:48:44;;;;;;;38.05;21.60;;;-0.20;99.90;;;;;;5005171;28;20091;-73
2021/12/27 06:51:10;;;;;;;38.72;22.27;;;-0.30;99.90;;;;;;5057293;28;20084;-74
2021/12/27 06:53:35;;;;;;;44.38;23.88;;;-0.30;99.90;;;;;;5005877;28;20490;-73
2021/12/27 06:56:02;;;;;;;39.22;18.92;;;-0.20;99.90;;;;;;5051793;28;20354;-74
2021/12/27 06:58:28;;;;;;;42.50;22.98;;;-0.20;99.90;;;;;;5050523;28;20084;-72
2021/12/27 07:00:54;;;;;;;40.65;22.48;;;-0.20;99.90;;;;;;5026758;28;20061;-73
2021/12/27 07:03:19;;;;;;;41.92;23.55;;;-0.20;99.90;;;;;;5028340;28;20042;-74
2021/12/27 07:05:45;;;;;;;39.83;22.30;;;-0.20;99.90;;;;;;5031094;28;20048;-73
2021/12/27 07:08:11;;;;;;;44.80;22.92;;;-0.20;99.90;;;;;;5043132;28;20046;-74
2021/12/27 07:10:37;;;;;;;44.65;23.23;;;-0.20;99.90;;;;;;5008843;28;20049;-74
2021/12/27 07:13:04;;;;;;;47.65;24.38;;;-0.20;99.90;;;;;;5038944;28;20057;-74
2021/12/27 07:15:30;;;;;;;42.17;23.63;;;-0.20;99.90;;;;;;5027226;28;20038;-74
2021/12/27 07:17:57;;;;;;;46.90;23.15;;;-0.20;99.90;;;;;;5015696;28;20165;-74
2021/12/27 07:20:23;;;;;;;45.67;21.92;;;-0.20;99.90;;;;;;5016368;28;20034;-74
2021/12/27 07:22:50;;;;;;;44.03;22.58;;;-0.20;99.90;;;;;;5032239;28;20128;-74
2021/12/27 07:25:16;;;;;;;43.80;22.60;;;-0.20;99.90;;;;;;5018275;28;20176;-74
2021/12/27 07:27:42;;;;;;;46.15;23.45;;;-0.20;99.90;;;;;;5024090;28;20045;-74
2021/12/27 07:30:11;;;;;;;44.45;22.35;;;-0.20;99.90;;;;;;5052982;28;20044;-74
2021/12/27 07:32:36;;;;;;;44.75;22.67;;;-0.20;99.90;;;;;;5023413;28;20516;-74
2021/12/27 07:35:04;;;;;;;43.75;21.10;;;-0.20;99.90;;;;;;5038152;28;20045;-75
2021/12/27 07:37:30;;;;;;;43.25;23.30;;;-0.10;99.90;;;;;;5049746;28;20125;-74
2021/12/27 07:39:56;;;;;;;48.30;23.33;;;-0.10;99.90;;;;;;5053998;28;20132;-74
2021/12/27 07:42:21;;;;;;;42.55;20.75;;;-0.20;99.90;;;;;;5022030;28;20073;-74
2021/12/27 07:44:47;;;;;;;48.47;23.25;;;-0.20;99.90;;;;;;5053087;28;20057;-74
2021/12/27 07:47:13;;;;;;;44.30;21.73;;;-0.10;99.90;;;;;;5006586;28;20485;-74
2021/12/27 07:49:39;;;;;;;49.75;24.20;;;-0.20;99.90;;;;;;5009786;28;20067;-73
2021/12/27 07:52:08;;;;;;;51.85;24.17;;;-0.20;99.90;;;;;;5021341;28;20069;-74
2021/12/27 07:54:34;;;;;;;44.35;22.55;;;-0.20;99.90;;;;;;5008825;28;20054;-74
2021/12/27 07:57:00;;;;;;;52.88;24.88;;;-0.10;99.90;;;;;;5025233;28;20120;-74
2021/12/27 07:59:27;;;;;;;44.95;23.60;;;-0.10;99.90;;;;;;5032688;28;20079;-74
2021/12/27 08:01:53;;;;;;;47.05;23.40;;;-0.10;99.90;;;;;;5049422;28;20041;-75
2021/12/27 08:04:19;;;;;;;42.60;20.10;;;-0.10;99.90;;;;;;4985464;28;20045;-74
2021/12/27 08:06:44;;;;;;;44.78;22.73;;;0.00;99.90;;;;;;5021425;28;20052;-74
2021/12/27 08:09:10;;;;;;;47.45;24.10;;;0.10;99.90;;;;;;5052077;28;20045;-74
2021/12/27 08:11:36;;;;;;;47.33;24.40;;;0.00;99.90;;;;;;5067875;28;20135;-74
2021/12/27 08:14:02;;;;;;;42.55;20.98;;;0.00;99.90;;;;;;5065510;28;20072;-74
2021/12/27 08:16:28;;;;;;;46.47;24.60;;;0.10;99.90;;;;;;5058687;28;20054;-75
2021/12/27 08:18:55;;;;;;;40.17;23.15;;;0.00;99.90;;;;;;5034417;28;20044;-75
2021/12/27 08:21:22;;;;;;;51.10;24.80;;;0.00;99.90;;;;;;5028993;28;20169;-77
2021/12/27 08:23:48;;;;;;;42.70;23.42;;;0.00;99.90;;;;;;5031960;28;20189;-80
2021/12/27 08:26:14;;;;;;;62.67;21.48;;;0.00;99.90;;;;;;5031110;28;20104;-72
2021/12/27 08:28:42;;;;;;;42.03;20.48;;;0.60;99.90;;;;;;5030151;28;20447;-78
2021/12/27 08:31:07;;;;;;;43.50;23.30;;;0.40;99.90;;;;;;5047250;28;20057;-76
2021/12/27 08:33:33;;;;;;;44.65;22.70;;;0.30;99.90;;;;;;5060145;28;20380;-75
2021/12/27 08:36:01;;;;;;;44.10;20.52;;;0.30;99.90;;;;;;5035873;28;20122;-79
2021/12/27 08:38:27;;;;;;;45.30;22.15;;;0.20;99.90;;;;;;5039223;28;20037;-77
2021/12/27 08:40:52;;;;;;;47.50;23.88;;;0.20;99.90;;;;;;5024426;28;20053;-77
2021/12/27 08:43:18;;;;;;;55.15;23.80;;;0.10;99.90;;;;;;5019586;28;20080;-78
2021/12/27 08:45:44;;;;;;;45.10;23.50;;;0.20;99.90;;;;;;5020403;28;20052;-79
2021/12/27 08:48:09;;;;;;;49.80;23.73;;;0.20;99.90;;;;;;5020254;28;20045;-77
2021/12/27 08:50:37;;;;;;;53.33;23.95;;;0.20;99.90;;;;;;5046698;28;20045;-77
2021/12/27 08:53:05;;;;;;;55.30;26.45;;;0.10;99.90;;;;;;5020226;28;20100;-80
2021/12/27 08:55:35;;;;;;;62.28;26.33;;;0.10;99.90;;;;;;5042706;28;20417;-76
2021/12/27 08:58:02;;;;;;;61.03;26.92;;;0.20;99.90;;;;;;5051358;28;20054;-76
2021/12/27 09:00:28;;;;;;;62.65;26.65;;;0.20;99.90;;;;;;5020485;28;20057;-77
2021/12/27 09:02:54;;;;;;;60.67;26.35;;;0.20;99.90;;;;;;5053649;28;20037;-76
2021/12/27 09:05:19;;;;;;;59.13;25.83;;;0.20;99.90;;;;;;5030619;28;20132;-76
2021/12/27 09:07:45;;;;;;;54.35;25.27;;;0.20;99.90;;;;;;5019091;28;20050;-75
2021/12/27 09:10:11;;;;;;;60.17;26.45;;;0.30;99.90;;;;;;5019969;28;20054;-77
2021/12/27 09:12:38;;;;;;;63.28;27.25;;;0.30;99.90;;;;;;5050578;28;20457;-77
2021/12/27 09:15:05;;;;;;;62.55;25.45;;;0.30;99.90;;;;;;5029352;28;20472;-76
2021/12/27 09:17:32;;;;;;;56.15;26.20;;;0.30;99.90;;;;;;5015827;28;20049;-75
2021/12/27 09:19:58;;;;;;;61.38;25.55;;;0.30;99.90;;;;;;5015434;28;20381;-78
2021/12/27 09:22:24;;;;;;;59.17;25.58;;;0.30;99.90;;;;;;5015867;28;20137;-76
2021/12/27 09:24:50;;;;;;;59.53;26.73;;;0.40;99.90;;;;;;5018917;28;20137;-76
2021/12/27 09:27:17;;;;;;;56.47;23.50;;;0.40;99.90;;;;;;5024228;28;21997;-75
2021/12/27 09:29:43;;;;;;;54.90;24.42;;;0.40;99.90;;;;;;5021839;28;20576;-76
2021/12/27 09:32:13;;;;;;;64.03;27.20;;;0.40;99.90;;;;;;5050072;28;20044;-77
2021/12/27 09:34:40;;;;;;;54.38;24.67;;;0.40;99.90;;;;;;5034424;28;20135;-78
2021/12/27 09:37:06;;;;;;;64.20;25.65;;;0.40;99.90;;;;;;5037519;28;20057;-76
2021/12/27 09:39:34;;;;;;;66.95;26.63;;;0.50;99.90;;;;;;5008390;28;20041;-78
2021/12/27 09:42:00;;;;;;;60.30;25.35;;;0.50;99.90;;;;;;5047350;28;20092;-77
2021/12/27 09:44:26;;;;;;;65.43;26.27;;;0.50;99.90;;;;;;5025008;28;20054;-78
2021/12/27 09:46:52;;;;;;;54.38;22.92;;;0.50;99.90;;;;;;5013367;28;20073;-77
2021/12/27 09:49:20;;;;;;;58.20;25.77;;;0.50;99.90;;;;;;5031273;28;20042;-78
2021/12/27 09:51:47;;;;;;;53.33;23.65;;;0.50;99.90;;;;;;5017227;28;20092;-79
2021/12/27 09:54:16;;;;;;;60.50;26.67;;;0.50;99.90;;;;;;5019188;28;20054;-78
2021/12/27 09:56:41;;;;;;;56.90;24.15;;;0.60;99.90;;;;;;5007895;28;20457;-77
2021/12/27 09:59:07;;;;;;;57.97;25.23;;;0.50;99.90;;;;;;5015104;28;20192;-76
2021/12/27 10:01:33;;;;;;;68.80;27.58;;;0.60;99.90;;;;;;5013590;28;20037;-76
2021/12/27 10:04:01;;;;;;;61.88;27.77;;;0.60;99.90;;;;;;5041853;28;20077;-75
2021/12/27 10:06:29;;;;;;;67.03;28.05;;;0.60;99.90;;;;;;5015822;28;20054;-74
2021/12/27 10:08:57;;;;;;;47.92;22.13;;;0.60;99.90;;;;;;5009263;28;20109;-75
2021/12/27 10:11:41;;;;;;;62.78;27.45;;;0.70;99.90;;;;;;4986909;28;20045;-76
2021/12/27 10:14:14;;;;;;;57.50;27.17;;;0.70;99.90;;;;;;4997973;28;20488;-77
2021/12/27 10:16:53;;;;;;;53.95;26.02;;;0.80;99.90;;;;;;5021694;28;20473;-76
2021/12/27 10:19:20;;;;;;;71.65;28.02;;;0.70;99.90;;;;;;5002928;28;20053;-78
2021/12/27 10:21:49;;;;;;;66.53;28.40;;;0.70;99.90;;;;;;5021890;28;20524;-78
2021/12/27 10:24:27;;;;;;;73.60;27.48;;;0.70;99.90;;;;;;4990406;28;20425;-77
2021/12/27 10:26:54;;;;;;;62.72;27.55;;;0.70;99.90;;;;;;5015950;28;20051;-77
2021/12/27 10:29:32;;;;;;;67.68;28.00;;;0.80;99.90;;;;;;4984864;28;20569;-77
2021/12/27 10:32:16;;;;;;;72.22;28.33;;;0.90;99.90;;;;;;5006566;28;20119;-78
2021/12/27 10:34:48;;;;;;;68.38;26.15;;;0.80;99.90;;;;;;4977445;28;20367;-77
2021/12/27 10:37:16;;;;;;;87.60;29.35;;;0.80;99.90;;;;;;5000023;28;20050;-78
2021/12/27 10:39:48;;;;;;;76.30;26.17;;;0.90;99.90;;;;;;5031432;28;20073;-78
2021/12/27 10:42:30;;;;;;;94.90;27.25;;;0.90;99.90;;;;;;5026646;28;20036;-78
2021/12/27 10:45:01;;;;;;;90.28;29.55;;;0.90;99.90;;;;;;5015013;28;20196;-77
2021/12/27 10:47:35;;;;;;;81.68;25.70;;;1.00;99.90;;;;;;5010784;28;20054;-78
2021/12/27 10:50:13;;;;;;;101.28;29.27;;;1.00;99.90;;;;;;5011192;28;20064;-76
2021/12/27 10:52:48;;;;;;;92.57;28.02;;;1.00;99.90;;;;;;5018182;28;20037;-75
2021/12/27 10:55:14;;;;;;;;;;;1.10;99.90;;;;;;5007182;28;20055;-76
2021/12/27 10:57:40;;;;;;;90.75;29.55;;;1.10;99.90;;;;;;5033080;28;19924;-76
2021/12/27 11:00:25;;;;;;;110.03;29.60;;;1.10;99.90;;;;;;5015405;28;20053;-76
2021/12/27 11:02:51;;;;;;;117.95;31.70;;;1.10;99.90;;;;;;5008748;28;20402;-77
2021/12/27 11:05:23;;;;;;;109.43;32.13;;;1.10;99.90;;;;;;5005433;28;20049;-77
2021/12/27 11:07:51;;;;;;;88.45;29.55;;;1.20;99.90;;;;;;4985616;28;20054;-76
2021/12/27 11:10:17;;;;;;;104.32;32.15;;;1.20;99.90;;;;;;4997544;28;20365;-77
2021/12/27 11:12:43;;;;;;;103.10;31.30;;;1.30;99.90;;;;;;5019072;28;20136;-76
2021/12/27 11:15:10;;;;;;;97.95;29.83;;;1.30;99.90;;;;;;5003122;28;20053;-76
2021/12/27 11:17:38;;;;;;;99.40;29.52;;;1.30;99.90;;;;;;4994636;28;20489;-76
2021/12/27 11:20:07;;;;;;;88.95;26.50;;;1.40;99.90;;;;;;4984262;28;20092;-79
2021/12/27 11:22:34;;;;;;;92.78;29.27;;;1.70;99.90;;;;;;5037148;28;20064;-78
2021/12/27 11:25:05;;;;;;;92.57;29.02;;;1.60;99.90;;;;;;5003322;28;20113;-77
2021/12/27 11:27:34;;;;;;;90.80;27.45;;;1.60;99.90;;;;;;4984065;28;20050;-78
2021/12/27 11:30:06;;;;;;;120.65;30.42;;;1.60;99.90;;;;;;4988321;28;20124;-79
2021/12/27 11:32:32;;;;;;;113.47;30.13;;;1.60;99.90;;;;;;5023034;28;20050;-77
2021/12/27 11:35:00;;;;;;;74.68;26.88;;;1.60;99.90;;;;;;5023560;28;20089;-75
2021/12/27 11:37:37;;;;;;;103.40;29.63;;;1.90;99.90;;;;;;5012753;28;20112;-77
2021/12/27 11:40:12;;;;;;;96.50;28.90;;;1.80;99.90;;;;;;5011026;28;20132;-77
2021/12/27 11:43:00;;;;;;;104.05;28.05;;;1.70;99.90;;;;;;5002935;28;20500;-76
2021/12/27 11:45:45;;;;;;;104.65;31.23;;;1.70;99.90;;;;;;5014726;28;20400;-77
2021/12/27 11:48:17;;;;;;;87.55;25.20;;;1.70;99.90;;;;;;5016156;28;20057;-77
2021/12/27 11:51:05;;;;;;;97.25;27.05;;;1.70;99.90;;;;;;5050810;28;20049;-76
2021/12/27 11:53:47;;;;;;;119.68;28.40;;;1.70;99.90;;;;;;5015098;28;20129;-77
2021/12/27 11:56:38;;;;;;;132.73;31.05;;;1.60;99.90;;;;;;5036617;28;20046;-77
2021/12/27 11:59:22;;;;;;;166.05;34.35;;;1.60;99.90;;;;;;5002825;28;20045;-78
2021/12/27 12:01:54;;;;;;;168.23;33.00;;;1.60;99.90;;;;;;4990100;28;20370;-76
2021/12/27 12:04:50;;;;;;;124.63;33.00;;;1.90;99.90;;;;;;5009514;28;20535;-76
2021/12/27 12:07:34;;;;;;;133.07;33.78;;;1.50;99.90;;;;;;5019058;28;20053;-77
2021/12/27 12:10:06;;;;;;;179.18;33.25;;;1.50;99.90;;;;;;5030582;28;20089;-78
2021/12/27 12:12:33;;;;;;;103.25;28.58;;;1.40;99.90;;;;;;5009252;28;20179;-76
2021/12/27 12:15:01;;;;;;;108.45;31.17;;;1.60;99.90;;;;;;5009117;28;20048;-76
2021/12/27 12:17:37;;;;;;;152.73;33.65;;;1.70;99.90;;;;;;5001659;28;20123;-78
2021/12/27 12:20:04;;;;;;;105.10;26.05;;;1.70;99.90;;;;;;5023915;28;20125;-77
2021/12/27 12:22:37;;;;;;;141.50;32.20;;;1.70;99.90;;;;;;5039102;28;20091;-77
2021/12/27 12:25:23;;;;;;;127.78;31.13;;;1.80;99.90;;;;;;5036385;28;20049;-76
2021/12/27 12:28:14;;;;;;;116.53;30.45;;;1.80;99.90;;;;;;5016870;28;20052;-77
2021/12/27 12:30:51;;;;;;;131.60;30.55;;;1.80;99.90;;;;;;5055694;28;20043;-77
2021/12/27 12:33:26;;;;;;;146.60;32.63;;;1.80;99.90;;;;;;5030631;28;20053;-78
2021/12/27 12:35:57;;;;;;;143.90;31.77;;;1.80;99.90;;;;;;5047947;28;20056;-76
2021/12/27 12:38:34;;;;;;;110.80;31.05;;;1.80;99.90;;;;;;5013939;28;20056;-76
2021/12/27 12:41:06;;;;;;;144.93;31.55;;;1.80;99.90;;;;;;5037032;28;20542;-76
2021/12/27 12:43:40;;;;;;;136.85;31.73;;;1.80;99.90;;;;;;5029107;28;20055;-76